Rincon, New Mexico
Current Conditions -  °F | °C
As of 7:35 PM on Wednesday 22 Oct 2014 (Local Time) from KLRU Reporting Station
Clear Clear  
Wind Chill: 66°   Ceiling: Unl
Heat Index: 66°   Visibility: 10mi
Dew Point: 53°   Wind: 3mph
Humidity: 63%   Direction: 140°SE
Pressure: 30.13"   Gusts: NA
Location:  32.67°N, 107.06°W
Report Text: KLRU 230135Z AUTO 14003KT 10SM CLR 19/12 A3013 RMK AO2 T01880117 PWINO
Loading
Personal Weather Stations






























Interactive Weather Map
Tropical Storm Tracking
New forecast layout! Learn more

10-Day Weather Forecast

Advertisements
Track Severe Weather on mobile